sensor_id;sensor_type;location;lat;lon;timestamp;P1;durP1;ratioP1;P2;durP2;ratioP2
79139;SDS011;68546;59.142;37.948;2023-04-01T00:01:20;29.00;;;21.92;;
79139;SDS011;68546;59.142;37.948;2023-04-01T00:03:46;28.25;;;21.23;;
79139;SDS011;68546;59.142;37.948;2023-04-01T00:06:14;31.85;;;22.80;;
79139;SDS011;68546;59.142;37.948;2023-04-01T00:08:43;31.40;;;21.98;;
79139;SDS011;68546;59.142;37.948;2023-04-01T00:11:10;28.95;;;21.45;;
79139;SDS011;68546;59.142;37.948;2023-04-01T00:13:37;27.30;;;20.93;;
79139;SDS011;68546;59.142;37.948;2023-04-01T00:16:03;31.75;;;19.92;;
79139;SDS011;68546;59.142;37.948;2023-04-01T00:18:30;28.13;;;20.90;;
79139;SDS011;68546;59.142;37.948;2023-04-01T00:20:56;30.53;;;22.33;;
79139;SDS011;68546;59.142;37.948;2023-04-01T00:23:23;29.52;;;22.17;;
79139;SDS011;68546;59.142;37.948;2023-04-01T00:25:49;29.63;;;22.02;;
79139;SDS011;68546;59.142;37.948;2023-04-01T00:28:16;32.67;;;23.02;;
79139;SDS011;68546;59.142;37.948;2023-04-01T00:30:44;33.45;;;24.33;;
79139;SDS011;68546;59.142;37.948;2023-04-01T00:33:11;36.00;;;24.67;;
79139;SDS011;68546;59.142;37.948;2023-04-01T00:35:37;34.03;;;24.90;;
79139;SDS011;68546;59.142;37.948;2023-04-01T00:38:04;33.47;;;24.77;;
79139;SDS011;68546;59.142;37.948;2023-04-01T00:40:33;35.35;;;25.35;;
79139;SDS011;68546;59.142;37.948;2023-04-01T00:43:02;36.47;;;25.73;;
79139;SDS011;68546;59.142;37.948;2023-04-01T00:45:33;39.00;;;27.40;;
79139;SDS011;68546;59.142;37.948;2023-04-01T00:48:07;41.88;;;27.77;;
79139;SDS011;68546;59.142;37.948;2023-04-01T00:50:36;37.45;;;26.90;;
79139;SDS011;68546;59.142;37.948;2023-04-01T00:53:05;37.42;;;26.95;;
79139;SDS011;68546;59.142;37.948;2023-04-01T00:55:35;42.90;;;28.52;;
79139;SDS011;68546;59.142;37.948;2023-04-01T00:58:07;38.75;;;27.17;;
79139;SDS011;68546;59.142;37.948;2023-04-01T01:00:37;40.03;;;26.35;;
79139;SDS011;68546;59.142;37.948;2023-04-01T01:03:04;35.73;;;25.77;;
79139;SDS011;68546;59.142;37.948;2023-04-01T01:05:38;34.97;;;24.42;;
79139;SDS011;68546;59.142;37.948;2023-04-01T01:11:05;40.93;;;28.43;;
79139;SDS011;68546;59.142;37.948;2023-04-01T01:13:43;39.72;;;27.02;;
79139;SDS011;68546;59.142;37.948;2023-04-01T01:17:05;42.28;;;29.05;;
79139;SDS011;68546;59.142;37.948;2023-04-01T01:22:15;49.83;;;32.60;;
79139;SDS011;68546;59.142;37.948;2023-04-01T01:24:49;46.10;;;30.08;;
79139;SDS011;68546;59.142;37.948;2023-04-01T01:27:22;45.17;;;30.38;;
79139;SDS011;68546;59.142;37.948;2023-04-01T01:32:44;48.50;;;31.15;;
79139;SDS011;68546;59.142;37.948;2023-04-01T01:35:45;53.45;;;33.33;;
79139;SDS011;68546;59.142;37.948;2023-04-01T01:38:21;53.80;;;33.63;;
79139;SDS011;68546;59.142;37.948;2023-04-01T01:41:01;51.15;;;32.70;;
79139;SDS011;68546;59.142;37.948;2023-04-01T01:43:31;49.70;;;31.65;;
79139;SDS011;68546;59.142;37.948;2023-04-01T01:46:03;50.25;;;32.15;;
79139;SDS011;68546;59.142;37.948;2023-04-01T01:48:33;52.60;;;33.22;;
79139;SDS011;68546;59.142;37.948;2023-04-01T01:51:01;53.88;;;33.35;;
79139;SDS011;68546;59.142;37.948;2023-04-01T01:53:30;55.25;;;33.00;;
79139;SDS011;68546;59.142;37.948;2023-04-01T01:55:56;56.07;;;33.97;;
79139;SDS011;68546;59.142;37.948;2023-04-01T01:58:42;55.13;;;33.72;;
79139;SDS011;68546;59.142;37.948;2023-04-01T02:01:14;60.88;;;35.30;;
79139;SDS011;68546;59.142;37.948;2023-04-01T02:03:46;61.33;;;35.80;;
79139;SDS011;68546;59.142;37.948;2023-04-01T02:06:18;60.78;;;35.55;;
79139;SDS011;68546;59.142;37.948;2023-04-01T02:08:49;60.88;;;35.63;;
79139;SDS011;68546;59.142;37.948;2023-04-01T02:11:28;64.95;;;36.80;;
79139;SDS011;68546;59.142;37.948;2023-04-01T02:14:08;66.43;;;37.20;;
79139;SDS011;68546;59.142;37.948;2023-04-01T02:19:16;69.05;;;38.17;;
79139;SDS011;68546;59.142;37.948;2023-04-01T02:21:53;68.30;;;37.30;;
79139;SDS011;68546;59.142;37.948;2023-04-01T02:24:23;67.32;;;37.15;;
79139;SDS011;68546;59.142;37.948;2023-04-01T02:26:53;65.18;;;36.60;;
79139;SDS011;68546;59.142;37.948;2023-04-01T02:29:20;67.20;;;37.57;;
79139;SDS011;68546;59.142;37.948;2023-04-01T02:31:49;66.70;;;37.45;;
79139;SDS011;68546;59.142;37.948;2023-04-01T02:34:17;70.15;;;37.97;;
79139;SDS011;68546;59.142;37.948;2023-04-01T02:36:45;69.57;;;38.28;;
79139;SDS011;68546;59.142;37.948;2023-04-01T02:39:14;73.82;;;39.20;;
79139;SDS011;68546;59.142;37.948;2023-04-01T02:41:41;73.57;;;39.42;;
79139;SDS011;68546;59.142;37.948;2023-04-01T02:44:09;71.10;;;38.38;;
79139;SDS011;68546;59.142;37.948;2023-04-01T02:46:37;73.33;;;39.00;;
79139;SDS011;68546;59.142;37.948;2023-04-01T02:49:04;75.38;;;39.35;;
79139;SDS011;68546;59.142;37.948;2023-04-01T02:51:31;74.32;;;39.30;;
79139;SDS011;68546;59.142;37.948;2023-04-01T02:53:58;76.07;;;39.77;;
79139;SDS011;68546;59.142;37.948;2023-04-01T02:56:25;75.60;;;39.50;;
79139;SDS011;68546;59.142;37.948;2023-04-01T02:58:52;75.90;;;39.70;;
79139;SDS011;68546;59.142;37.948;2023-04-01T03:01:19;77.07;;;40.47;;
79139;SDS011;68546;59.142;37.948;2023-04-01T03:03:46;79.28;;;40.65;;
79139;SDS011;68546;59.142;37.948;2023-04-01T03:06:13;79.35;;;40.97;;
79139;SDS011;68546;59.142;37.948;2023-04-01T03:08:41;77.95;;;40.25;;
79139;SDS011;68546;59.142;37.948;2023-04-01T03:11:08;78.00;;;40.37;;
79139;SDS011;68546;59.142;37.948;2023-04-01T03:13:36;75.30;;;39.50;;
79139;SDS011;68546;59.142;37.948;2023-04-01T03:16:03;74.32;;;38.92;;
79139;SDS011;68546;59.142;37.948;2023-04-01T03:18:33;76.10;;;39.80;;
79139;SDS011;68546;59.142;37.948;2023-04-01T03:21:18;74.22;;;39.22;;
79139;SDS011;68546;59.142;37.948;2023-04-01T03:23:46;76.22;;;39.53;;
79139;SDS011;68546;59.142;37.948;2023-04-01T03:26:13;72.72;;;39.10;;
79139;SDS011;68546;59.142;37.948;2023-04-01T03:28:40;71.78;;;39.00;;
79139;SDS011;68546;59.142;37.948;2023-04-01T03:31:07;68.85;;;38.22;;
79139;SDS011;68546;59.142;37.948;2023-04-01T03:33:40;67.43;;;37.45;;
79139;SDS011;68546;59.142;37.948;2023-04-01T03:36:09;68.93;;;37.13;;
79139;SDS011;68546;59.142;37.948;2023-04-01T03:38:39;67.57;;;37.25;;
79139;SDS011;68546;59.142;37.948;2023-04-01T03:41:15;61.67;;;35.63;;
79139;SDS011;68546;59.142;37.948;2023-04-01T03:43:43;61.63;;;36.03;;
79139;SDS011;68546;59.142;37.948;2023-04-01T03:46:10;53.88;;;33.47;;
79139;SDS011;68546;59.142;37.948;2023-04-01T03:48:37;49.00;;;31.45;;
79139;SDS011;68546;59.142;37.948;2023-04-01T03:51:07;45.50;;;29.95;;
79139;SDS011;68546;59.142;37.948;2023-04-01T03:53:34;43.85;;;29.58;;
79139;SDS011;68546;59.142;37.948;2023-04-01T03:56:04;39.08;;;26.95;;
79139;SDS011;68546;59.142;37.948;2023-04-01T03:58:32;34.63;;;24.88;;
79139;SDS011;68546;59.142;37.948;2023-04-01T04:01:19;31.60;;;22.70;;
79139;SDS011;68546;59.142;37.948;2023-04-01T04:03:49;29.80;;;21.38;;
79139;SDS011;68546;59.142;37.948;2023-04-01T04:06:17;24.85;;;18.70;;
79139;SDS011;68546;59.142;37.948;2023-04-01T04:08:46;25.23;;;18.97;;
79139;SDS011;68546;59.142;37.948;2023-04-01T04:11:13;22.77;;;17.27;;
79139;SDS011;68546;59.142;37.948;2023-04-01T04:13:42;22.10;;;16.70;;
79139;SDS011;68546;59.142;37.948;2023-04-01T04:16:09;20.30;;;15.88;;
79139;SDS011;68546;59.142;37.948;2023-04-01T04:18:45;21.50;;;16.25;;
79139;SDS011;68546;59.142;37.948;2023-04-01T04:21:12;18.15;;;13.70;;
79139;SDS011;68546;59.142;37.948;2023-04-01T04:23:41;16.70;;;12.68;;
79139;SDS011;68546;59.142;37.948;2023-04-01T04:26:08;15.30;;;11.20;;
79139;SDS011;68546;59.142;37.948;2023-04-01T04:28:37;14.27;;;11.32;;
79139;SDS011;68546;59.142;37.948;2023-04-01T04:31:03;12.18;;;9.13;;
79139;SDS011;68546;59.142;37.948;2023-04-01T04:33:40;13.67;;;9.77;;
79139;SDS011;68546;59.142;37.948;2023-04-01T04:36:07;10.90;;;7.43;;
79139;SDS011;68546;59.142;37.948;2023-04-01T04:38:34;10.48;;;6.72;;
79139;SDS011;68546;59.142;37.948;2023-04-01T04:41:00;9.05;;;6.20;;
79139;SDS011;68546;59.142;37.948;2023-04-01T04:43:27;9.45;;;5.47;;
79139;SDS011;68546;59.142;37.948;2023-04-01T04:45:54;12.38;;;5.18;;
79139;SDS011;68546;59.142;37.948;2023-04-01T04:48:21;5.97;;;3.17;;
79139;SDS011;68546;59.142;37.948;2023-04-01T04:50:49;8.37;;;4.00;;
79139;SDS011;68546;59.142;37.948;2023-04-01T04:53:18;6.85;;;3.42;;
79139;SDS011;68546;59.142;37.948;2023-04-01T04:55:46;6.03;;;2.80;;
79139;SDS011;68546;59.142;37.948;2023-04-01T04:58:31;6.63;;;3.53;;
79139;SDS011;68546;59.142;37.948;2023-04-01T05:00:58;5.30;;;2.55;;
79139;SDS011;68546;59.142;37.948;2023-04-01T05:03:29;5.93;;;2.47;;
79139;SDS011;68546;59.142;37.948;2023-04-01T05:05:56;6.97;;;3.03;;
79139;SDS011;68546;59.142;37.948;2023-04-01T05:08:25;5.05;;;2.65;;
79139;SDS011;68546;59.142;37.948;2023-04-01T05:10:51;6.03;;;2.55;;
79139;SDS011;68546;59.142;37.948;2023-04-01T05:13:18;5.05;;;2.15;;
79139;SDS011;68546;59.142;37.948;2023-04-01T05:15:46;5.97;;;2.07;;
79139;SDS011;68546;59.142;37.948;2023-04-01T05:18:13;6.68;;;2.17;;
79139;SDS011;68546;59.142;37.948;2023-04-01T05:20:45;5.95;;;2.45;;
79139;SDS011;68546;59.142;37.948;2023-04-01T05:23:19;4.47;;;1.87;;
79139;SDS011;68546;59.142;37.948;2023-04-01T05:25:49;4.93;;;1.75;;
79139;SDS011;68546;59.142;37.948;2023-04-01T05:28:16;5.85;;;2.03;;
79139;SDS011;68546;59.142;37.948;2023-04-01T05:30:48;5.57;;;2.03;;
79139;SDS011;68546;59.142;37.948;2023-04-01T05:33:21;5.85;;;2.05;;
79139;SDS011;68546;59.142;37.948;2023-04-01T05:35:48;6.88;;;2.40;;
79139;SDS011;68546;59.142;37.948;2023-04-01T05:38:14;5.95;;;2.05;;
79139;SDS011;68546;59.142;37.948;2023-04-01T05:40:41;4.67;;;1.23;;
79139;SDS011;68546;59.142;37.948;2023-04-01T05:43:08;3.80;;;1.20;;
79139;SDS011;68546;59.142;37.948;2023-04-01T05:45:35;4.50;;;1.52;;
79139;SDS011;68546;59.142;37.948;2023-04-01T05:48:11;4.57;;;1.47;;
79139;SDS011;68546;59.142;37.948;2023-04-01T05:50:40;4.25;;;1.35;;
79139;SDS011;68546;59.142;37.948;2023-04-01T05:53:09;4.55;;;1.50;;
79139;SDS011;68546;59.142;37.948;2023-04-01T05:55:36;3.20;;;1.10;;
79139;SDS011;68546;59.142;37.948;2023-04-01T05:58:05;4.10;;;1.83;;
79139;SDS011;68546;59.142;37.948;2023-04-01T06:00:32;3.22;;;1.05;;
79139;SDS011;68546;59.142;37.948;2023-04-01T06:03:00;9.85;;;1.60;;
79139;SDS011;68546;59.142;37.948;2023-04-01T06:05:38;4.77;;;1.27;;
79139;SDS011;68546;59.142;37.948;2023-04-01T06:08:12;4.55;;;1.52;;
79139;SDS011;68546;59.142;37.948;2023-04-01T06:11:18;5.25;;;1.63;;
79139;SDS011;68546;59.142;37.948;2023-04-01T06:16:55;4.50;;;1.50;;
79139;SDS011;68546;59.142;37.948;2023-04-01T06:25:42;4.70;;;1.53;;
79139;SDS011;68546;59.142;37.948;2023-04-01T06:28:22;4.32;;;1.33;;
79139;SDS011;68546;59.142;37.948;2023-04-01T06:42:06;4.95;;;2.00;;
79139;SDS011;68546;59.142;37.948;2023-04-01T06:54:32;3.88;;;1.42;;
79139;SDS011;68546;59.142;37.948;2023-04-01T06:57:52;4.60;;;1.52;;
79139;SDS011;68546;59.142;37.948;2023-04-01T07:00:19;5.35;;;1.77;;
79139;SDS011;68546;59.142;37.948;2023-04-01T07:05:53;4.80;;;1.73;;
79139;SDS011;68546;59.142;37.948;2023-04-01T07:08:27;4.50;;;1.57;;
79139;SDS011;68546;59.142;37.948;2023-04-01T07:11:02;4.50;;;1.45;;
79139;SDS011;68546;59.142;37.948;2023-04-01T07:13:51;5.70;;;1.40;;
79139;SDS011;68546;59.142;37.948;2023-04-01T07:16:32;6.13;;;1.42;;
79139;SDS011;68546;59.142;37.948;2023-04-01T07:25:16;4.63;;;1.38;;
79139;SDS011;68546;59.142;37.948;2023-04-01T07:28:15;3.63;;;1.38;;
79139;SDS011;68546;59.142;37.948;2023-04-01T07:30:59;4.05;;;1.55;;
79139;SDS011;68546;59.142;37.948;2023-04-01T07:33:39;4.33;;;1.43;;
79139;SDS011;68546;59.142;37.948;2023-04-01T07:36:21;4.20;;;1.08;;
79139;SDS011;68546;59.142;37.948;2023-04-01T07:42:21;4.18;;;1.40;;
79139;SDS011;68546;59.142;37.948;2023-04-01T07:48:26;3.70;;;1.23;;
79139;SDS011;68546;59.142;37.948;2023-04-01T07:51:13;4.25;;;1.05;;
79139;SDS011;68546;59.142;37.948;2023-04-01T08:08:04;3.58;;;1.23;;
79139;SDS011;68546;59.142;37.948;2023-04-01T08:11:04;3.58;;;1.25;;
79139;SDS011;68546;59.142;37.948;2023-04-01T08:17:05;4.32;;;1.38;;
79139;SDS011;68546;59.142;37.948;2023-04-01T08:22:48;3.72;;;1.20;;
79139;SDS011;68546;59.142;37.948;2023-04-01T08:25:25;3.88;;;1.27;;
79139;SDS011;68546;59.142;37.948;2023-04-01T08:33:36;5.57;;;1.30;;
79139;SDS011;68546;59.142;37.948;2023-04-01T08:36:16;4.05;;;1.17;;
79139;SDS011;68546;59.142;37.948;2023-04-01T08:45:14;4.82;;;1.27;;
79139;SDS011;68546;59.142;37.948;2023-04-01T09:08:00;3.90;;;1.30;;
79139;SDS011;68546;59.142;37.948;2023-04-01T09:11:17;4.37;;;1.00;;
79139;SDS011;68546;59.142;37.948;2023-04-01T09:28:10;3.08;;;0.98;;
79139;SDS011;68546;59.142;37.948;2023-04-01T09:40:15;5.03;;;1.30;;
79139;SDS011;68546;59.142;37.948;2023-04-01T09:53:48;3.90;;;1.23;;
79139;SDS011;68546;59.142;37.948;2023-04-01T10:08:56;3.33;;;0.93;;
79139;SDS011;68546;59.142;37.948;2023-04-01T10:22:24;3.90;;;1.00;;
79139;SDS011;68546;59.142;37.948;2023-04-01T10:40:00;4.78;;;1.70;;
79139;SDS011;68546;59.142;37.948;2023-04-01T10:43:35;4.38;;;1.02;;
79139;SDS011;68546;59.142;37.948;2023-04-01T10:52:11;3.53;;;0.90;;
79139;SDS011;68546;59.142;37.948;2023-04-01T10:58:38;4.47;;;1.20;;
79139;SDS011;68546;59.142;37.948;2023-04-01T11:08:11;4.77;;;1.33;;
79139;SDS011;68546;59.142;37.948;2023-04-01T11:11:02;6.43;;;1.25;;
79139;SDS011;68546;59.142;37.948;2023-04-01T11:30:28;5.38;;;1.60;;
79139;SDS011;68546;59.142;37.948;2023-04-01T11:50:40;5.10;;;1.57;;
79139;SDS011;68546;59.142;37.948;2023-04-01T11:58:57;5.60;;;0.95;;
79139;SDS011;68546;59.142;37.948;2023-04-01T12:04:43;5.67;;;1.03;;
79139;SDS011;68546;59.142;37.948;2023-04-01T12:10:39;5.25;;;1.23;;
79139;SDS011;68546;59.142;37.948;2023-04-01T12:15:59;4.13;;;0.93;;
79139;SDS011;68546;59.142;37.948;2023-04-01T12:18:50;4.30;;;1.30;;
79139;SDS011;68546;59.142;37.948;2023-04-01T12:21:24;5.05;;;0.90;;
79139;SDS011;68546;59.142;37.948;2023-04-01T12:30:02;7.93;;;1.10;;
79139;SDS011;68546;59.142;37.948;2023-04-01T12:35:47;3.33;;;0.80;;
79139;SDS011;68546;59.142;37.948;2023-04-01T12:38:31;3.63;;;1.10;;
79139;SDS011;68546;59.142;37.948;2023-04-01T12:52:08;3.70;;;0.95;;
79139;SDS011;68546;59.142;37.948;2023-04-01T13:00:57;11.63;;;1.50;;
79139;SDS011;68546;59.142;37.948;2023-04-01T13:03:59;3.58;;;0.95;;
79139;SDS011;68546;59.142;37.948;2023-04-01T13:06:42;6.03;;;1.48;;
79139;SDS011;68546;59.142;37.948;2023-04-01T13:09:21;4.93;;;0.82;;
79139;SDS011;68546;59.142;37.948;2023-04-01T13:12:04;4.68;;;1.48;;
79139;SDS011;68546;59.142;37.948;2023-04-01T13:34:19;4.57;;;1.50;;
79139;SDS011;68546;59.142;37.948;2023-04-01T13:43:16;8.07;;;1.47;;
79139;SDS011;68546;59.142;37.948;2023-04-01T13:46:02;4.47;;;1.63;;
79139;SDS011;68546;59.142;37.948;2023-04-01T13:54:38;5.53;;;1.00;;
79139;SDS011;68546;59.142;37.948;2023-04-01T14:03:19;7.15;;;1.60;;
79139;SDS011;68546;59.142;37.948;2023-04-01T14:16:27;4.15;;;1.30;;
79139;SDS011;68546;59.142;37.948;2023-04-01T14:29:47;8.95;;;1.65;;
79139;SDS011;68546;59.142;37.948;2023-04-01T14:49:17;6.57;;;1.80;;
79139;SDS011;68546;59.142;37.948;2023-04-01T14:51:49;6.97;;;2.00;;
79139;SDS011;68546;59.142;37.948;2023-04-01T14:54:30;5.68;;;1.90;;
79139;SDS011;68546;59.142;37.948;2023-04-01T14:57:10;6.43;;;2.08;;
79139;SDS011;68546;59.142;37.948;2023-04-01T14:59:47;7.45;;;2.08;;
79139;SDS011;68546;59.142;37.948;2023-04-01T15:07:50;6.10;;;1.90;;
79139;SDS011;68546;59.142;37.948;2023-04-01T15:10:37;8.55;;;1.80;;
79139;SDS011;68546;59.142;37.948;2023-04-01T15:52:43;4.75;;;1.40;;
79139;SDS011;68546;59.142;37.948;2023-04-01T15:58:25;4.55;;;1.45;;
79139;SDS011;68546;59.142;37.948;2023-04-01T16:01:14;4.60;;;1.20;;
79139;SDS011;68546;59.142;37.948;2023-04-01T16:07:10;4.95;;;1.35;;
79139;SDS011;68546;59.142;37.948;2023-04-01T16:09:47;4.80;;;0.98;;
79139;SDS011;68546;59.142;37.948;2023-04-01T16:15:29;3.60;;;1.03;;
79139;SDS011;68546;59.142;37.948;2023-04-01T16:20:53;3.95;;;1.10;;
79139;SDS011;68546;59.142;37.948;2023-04-01T16:26:52;2.50;;;0.73;;
79139;SDS011;68546;59.142;37.948;2023-04-01T16:35:16;4.30;;;1.13;;
79139;SDS011;68546;59.142;37.948;2023-04-01T16:37:49;4.53;;;1.05;;
79139;SDS011;68546;59.142;37.948;2023-04-01T16:48:43;2.80;;;0.95;;
79139;SDS011;68546;59.142;37.948;2023-04-01T16:51:35;5.30;;;1.25;;
79139;SDS011;68546;59.142;37.948;2023-04-01T16:54:14;4.10;;;1.25;;
79139;SDS011;68546;59.142;37.948;2023-04-01T16:56:50;3.00;;;0.97;;
79139;SDS011;68546;59.142;37.948;2023-04-01T16:59:23;3.00;;;1.02;;
79139;SDS011;68546;59.142;37.948;2023-04-01T17:02:11;3.50;;;1.30;;
79139;SDS011;68546;59.142;37.948;2023-04-01T17:04:48;3.47;;;0.93;;
79139;SDS011;68546;59.142;37.948;2023-04-01T17:07:35;3.55;;;1.17;;
79139;SDS011;68546;59.142;37.948;2023-04-01T17:34:52;3.92;;;1.23;;
79139;SDS011;68546;59.142;37.948;2023-04-01T17:40:54;10.00;;;1.35;;
79139;SDS011;68546;59.142;37.948;2023-04-01T17:43:13;4.15;;;1.55;;
79139;SDS011;68546;59.142;37.948;2023-04-01T17:52:21;5.20;;;1.20;;
79139;SDS011;68546;59.142;37.948;2023-04-01T18:06:46;5.47;;;1.83;;
79139;SDS011;68546;59.142;37.948;2023-04-01T18:23:36;3.70;;;1.27;;
79139;SDS011;68546;59.142;37.948;2023-04-01T18:26:13;4.03;;;1.33;;
79139;SDS011;68546;59.142;37.948;2023-04-01T18:28:49;4.47;;;1.20;;
79139;SDS011;68546;59.142;37.948;2023-04-01T18:31:37;4.57;;;1.33;;
79139;SDS011;68546;59.142;37.948;2023-04-01T18:36:59;3.80;;;1.13;;
79139;SDS011;68546;59.142;37.948;2023-04-01T18:39:39;5.30;;;1.58;;
79139;SDS011;68546;59.142;37.948;2023-04-01T18:45:18;4.07;;;1.23;;
79139;SDS011;68546;59.142;37.948;2023-04-01T18:54:00;5.18;;;1.35;;
79139;SDS011;68546;59.142;37.948;2023-04-01T18:56:33;4.70;;;1.45;;
79139;SDS011;68546;59.142;37.948;2023-04-01T18:59:19;5.93;;;1.58;;
79139;SDS011;68546;59.142;37.948;2023-04-01T19:04:24;4.68;;;1.50;;
79139;SDS011;68546;59.142;37.948;2023-04-01T19:06:58;4.00;;;1.25;;
79139;SDS011;68546;59.142;37.948;2023-04-01T19:09:48;4.10;;;1.42;;
79139;SDS011;68546;59.142;37.948;2023-04-01T19:18:16;3.70;;;1.25;;
79139;SDS011;68546;59.142;37.948;2023-04-01T19:21:16;4.88;;;1.65;;
79139;SDS011;68546;59.142;37.948;2023-04-01T19:27:00;7.10;;;1.63;;
79139;SDS011;68546;59.142;37.948;2023-04-01T19:29:48;5.20;;;1.55;;
79139;SDS011;68546;59.142;37.948;2023-04-01T19:38:11;6.63;;;1.57;;
79139;SDS011;68546;59.142;37.948;2023-04-01T19:40:47;5.28;;;1.30;;
79139;SDS011;68546;59.142;37.948;2023-04-01T19:51:48;4.33;;;1.43;;
79139;SDS011;68546;59.142;37.948;2023-04-01T20:08:35;4.65;;;1.52;;
79139;SDS011;68546;59.142;37.948;2023-04-01T20:14:14;4.72;;;1.35;;
79139;SDS011;68546;59.142;37.948;2023-04-01T20:17:02;3.70;;;1.40;;
79139;SDS011;68546;59.142;37.948;2023-04-01T20:19:43;5.15;;;1.50;;
79139;SDS011;68546;59.142;37.948;2023-04-01T20:22:24;4.47;;;1.45;;
79139;SDS011;68546;59.142;37.948;2023-04-01T20:28:04;4.30;;;1.40;;
79139;SDS011;68546;59.142;37.948;2023-04-01T20:36:04;3.90;;;1.33;;
79139;SDS011;68546;59.142;37.948;2023-04-01T20:44:58;5.47;;;1.50;;
79139;SDS011;68546;59.142;37.948;2023-04-01T20:47:34;4.10;;;1.33;;
79139;SDS011;68546;59.142;37.948;2023-04-01T20:52:52;3.85;;;1.20;;
79139;SDS011;68546;59.142;37.948;2023-04-01T21:01:11;4.47;;;1.73;;
79139;SDS011;68546;59.142;37.948;2023-04-01T21:12:09;4.60;;;1.55;;
79139;SDS011;68546;59.142;37.948;2023-04-01T21:20:16;5.38;;;1.60;;
79139;SDS011;68546;59.142;37.948;2023-04-01T21:28:34;4.47;;;1.38;;
79139;SDS011;68546;59.142;37.948;2023-04-01T21:37:19;6.27;;;1.53;;
79139;SDS011;68546;59.142;37.948;2023-04-01T21:44:58;6.90;;;2.55;;
79139;SDS011;68546;59.142;37.948;2023-04-01T21:53:18;3.20;;;1.23;;
79139;SDS011;68546;59.142;37.948;2023-04-01T22:12:03;5.40;;;2.28;;
79139;SDS011;68546;59.142;37.948;2023-04-01T22:14:52;4.47;;;1.60;;
79139;SDS011;68546;59.142;37.948;2023-04-01T22:29:22;5.57;;;1.85;;
79139;SDS011;68546;59.142;37.948;2023-04-01T22:31:32;4.57;;;1.67;;
79139;SDS011;68546;59.142;37.948;2023-04-01T22:36:45;3.90;;;1.33;;
79139;SDS011;68546;59.142;37.948;2023-04-01T22:39:40;4.80;;;1.80;;
79139;SDS011;68546;59.142;37.948;2023-04-01T22:45:48;5.20;;;1.77;;
79139;SDS011;68546;59.142;37.948;2023-04-01T22:48:28;5.65;;;2.03;;
79139;SDS011;68546;59.142;37.948;2023-04-01T22:59:35;4.05;;;1.30;;
79139;SDS011;68546;59.142;37.948;2023-04-01T23:02:11;5.63;;;1.77;;
79139;SDS011;68546;59.142;37.948;2023-04-01T23:04:43;4.35;;;1.52;;
79139;SDS011;68546;59.142;37.948;2023-04-01T23:07:19;4.60;;;1.58;;
79139;SDS011;68546;59.142;37.948;2023-04-01T23:09:54;5.00;;;1.95;;
79139;SDS011;68546;59.142;37.948;2023-04-01T23:12:22;4.75;;;1.45;;
79139;SDS011;68546;59.142;37.948;2023-04-01T23:14:52;5.55;;;1.90;;
79139;SDS011;68546;59.142;37.948;2023-04-01T23:23:17;5.93;;;2.20;;
79139;SDS011;68546;59.142;37.948;2023-04-01T23:26:08;5.75;;;2.08;;
79139;SDS011;68546;59.142;37.948;2023-04-01T23:28:51;5.63;;;2.45;;
79139;SDS011;68546;59.142;37.948;2023-04-01T23:31:29;7.05;;;2.40;;
79139;SDS011;68546;59.142;37.948;2023-04-01T23:36:41;7.28;;;2.08;;
79139;SDS011;68546;59.142;37.948;2023-04-01T23:41:50;7.18;;;1.98;;
79139;SDS011;68546;59.142;37.948;2023-04-01T23:44:19;7.03;;;2.05;;
79139;SDS011;68546;59.142;37.948;2023-04-01T23:46:47;5.30;;;1.83;;
79139;SDS011;68546;59.142;37.948;2023-04-01T23:49:18;5.47;;;2.03;;
79139;SDS011;68546;59.142;37.948;2023-04-01T23:54:55;5.00;;;1.73;;
79139;SDS011;68546;59.142;37.948;2023-04-01T23:57:30;6.13;;;1.80;;
